Terminal Aerodrome Forecast
Issued by NWS

Home | Current Version | Previous Version | Text Only | Print | Product List | Glossary On
Versions: 1 2 3 4 5 6 7 8 9 10 11 12 13 14 15 16 17 18 19 20 21 22 23 24
000
FTUS41 KPBZ 221723
TAFAGC
TAF
KAGC 221723Z 2218/2318 28011G17KT P6SM SCT025 BKN250
     FM221900 28011G17KT P6SM BKN250
     FM222200 28008KT P6SM SCT035
     FM230100 00000KT P6SM SCT250
     FM231100 03004KT P6SM OVC250=

USA.gov is the U.S. government's official web portal to all federal, state and local government web resources and services.